• Join FlightAware (Why Join?)
  • Login
  • US Flag 
06:39PM EDT


 

Airport Tracker/Info


-or-


 

Live Flight TrackerFlight Track Log ✈ UAL298 ✈ 26-Jul-2013 ✈ CYVR - KORD

Flight Track Log - Related Links

Times and Time Zones

All times are in EDT time to prevent confusion due to time zone crossing. See the UAL298 flight status page for this flight to view local times or setup timezone preferences in your user account.

Time Position Orientation Groundspeed Altitude Reporting Facility
EDT Latitude Longitude Course Direction KTS MPH feet Rate Location/Type
05:19PM 49.1667 -123.2167 90° East 170 196 1,200  Level Vancouver Center
05:20PM 49.1667 -123.3167 270° West 220 253 2,500 2,040 Climbing Vancouver Center
05:21PM 49.0038 -122.7153 111° Southeast  Level FlightAware Approximate
05:21PM 49.1167 -123.3667 213° Southwest 250 288 5,300  Level Vancouver Center
05:22PM 48.9333 -122.5664 90° East  Level FlightAware Approximate
05:22PM 49.0833 -123.2833 121° Southeast 290 334 7,700  Level Vancouver Center
05:23PM 48.9333 -122.3796 90° East  Level FlightAware Approximate
05:23PM 49.0500 -123.1667 114° Southeast 300 345 10,400  Level Vancouver Center
05:24PM 48.9335 -122.1929 90° East  Level FlightAware Approximate
05:24PM 49.0333 -123.0333 101° East 360 414 11,300  Level Vancouver Center
05:25PM 49.0000 -122.8500 105° East 380 437 13,900 2,100 Climbing Vancouver Center
05:26PM 49.0000 -122.7000 90° East 390 449 15,600 1,800 Climbing Vancouver Center
05:27PM 49.0000 -122.5333 90° East 400 460 17,500 1,680 Climbing Vancouver Center
05:28PM 48.9833 -122.3500 98° East 410 472 19,000 1,500 Climbing Vancouver Center
05:29PM 48.9833 -122.1667 90° East 430 495 20,500 1,500 Climbing Vancouver Center
05:30PM 48.9667 -122.0000 99° East 440 506 22,100 1,380 Climbing Vancouver Center
05:31PM 48.9667 -121.7833 90° East 450 518 23,300 1,200 Climbing Vancouver Center
05:32PM 48.9500 -121.5833 97° East 460 529 24,600 1,200 Climbing Vancouver Center
05:33PM 48.9500 -121.4167 90° East 470 541 25,800 1,140 Climbing Vancouver Center
05:34PM 48.9167 -121.2000 103° East 480 552 26,900 1,020 Climbing Vancouver Center
05:35PM 48.9167 -121.0000 90° East 480 552 27,900 900 Climbing Vancouver Center
05:36PM 48.9167 -120.7833 90° East 490 564 28,800 900 Climbing Vancouver Center
05:37PM 48.9000 -120.5667 97° East 500 575 29,800 1,020 Climbing Vancouver Center
05:38PM 48.8833 -120.3667 97° East 500 575 30,900 1,020 Climbing Vancouver Center
05:39PM 48.8667 -120.1667 97° East 500 575 31,900 960 Climbing Vancouver Center
05:39PM 48.8736 -120.0242 86° East 494 568 32,600 900 Climbing Seattle Center
05:40PM 48.8578 -119.8186 97° East 491 565 33,500 780 Climbing Seattle Center
05:41PM 48.8425 -119.6147 96° East 488 562 34,300 540 Climbing Seattle Center
05:43PM 48.8256 -119.4092 97° East 492 566 34,700 300 Climbing Seattle Center
05:44PM 48.8092 -119.2022 97° East 495 570 35,000 60 Climbing Seattle Center
05:45PM 48.7936 -118.9969 96° East 492 566 34,900 -60 Descending Seattle Center
05:46PM 48.7756 -118.7942 98° East 490 564 34,900  Level Seattle Center
05:47PM 48.7581 -118.5908 97° East 488 562 34,900  Level Seattle Center
05:48PM 48.7400 -118.3861 98° East 490 564 34,900  Level Seattle Center
05:49PM 48.7219 -118.1833 98° East 487 560 35,000  Climbing Seattle Center
05:50PM 48.6992 -117.9400 98° East 486 559 35,000 -60 Level Seattle Center
05:51PM 48.6803 -117.7392 98° East 485 558 34,900  Descending Seattle Center
05:52PM 48.6606 -117.5361 98° East 487 560 35,000  Climbing Seattle Center
05:53PM 48.6414 -117.3333 98° East 487 560 35,000  Level Seattle Center
05:54PM 48.6203 -117.1311 99° East 486 559 35,000  Level Seattle Center
05:55PM 48.6000 -116.9292 99° East 486 559 35,000  Level Seattle Center
05:56PM 48.5789 -116.7261 99° East 487 560 35,000 -60 Level Seattle Center
05:57PM 48.5575 -116.5247 99° East 487 560 34,900 -60 Descending Seattle Center
05:58PM 48.5356 -116.3253 99° East 485 558 34,900  Level Seattle Center
05:59PM 48.5139 -116.1258 99° East 484 557 35,000  Climbing Seattle Center
06:00PM 48.4975 -115.9297 97° East 480 552 35,000  Level Seattle Center
06:01PM 48.5050 -115.7231 87° East 486 559 35,000 -60 Level Seattle Center
06:02PM 48.5058 -115.4786 90° East 488 562 34,900 -60 Descending Seattle Center
06:03PM 48.5056 -115.2775 90° East 485 558 34,900  Level Seattle Center
06:04PM 48.5053 -115.0739 90° East 485 558 35,000  Climbing Seattle Center
06:05PM 48.5058 -114.8700 90° East 485 558 35,000  Level Seattle Center
06:06PM 48.5050 -114.6647 90° East 486 559 35,000  Level Seattle Center
06:06PM 48.5042 -114.5831 91° East 487 560 35,000  Level Salt Lake Center
06:08PM 48.5033 -114.3775 90° East 487 560 35,000 -60 Level Salt Lake Center
06:09PM 48.5014 -114.1319 91° East 486 559 34,900 -60 Descending Salt Lake Center
06:10PM 48.4792 -113.9314 99° East 484 557 34,900  Level Salt Lake Center
06:11PM 48.4311 -113.7406 111° Southeast 484 557 35,000  Climbing Salt Lake Center
06:12PM 48.3806 -113.5536 112° Southeast 481 554 35,000 -60 Level Salt Lake Center
06:13PM 48.3297 -113.3678 112° Southeast 480 552 34,900 -60 Descending Salt Lake Center
06:14PM 48.2781 -113.1803 112° Southeast 483 556 34,900  Level Salt Lake Center
06:15PM 48.2250 -112.9933 113° Southeast 485 558 35,000  Climbing Salt Lake Center
06:16PM 48.1631 -112.7708 113° Southeast 484 557 35,000  Level Salt Lake Center
06:17PM 48.1111 -112.5850 113° Southeast 484 557 35,000 -60 Level Salt Lake Center
06:18PM 48.0564 -112.3958 113° Southeast 483 556 34,900 -60 Descending Salt Lake Center
06:19PM 48.0042 -112.2128 113° Southeast 481 554 34,900  Level Salt Lake Center
06:20PM 47.9511 -112.0294 113° Southeast 483 556 34,900  Level Salt Lake Center
06:21PM 47.8972 -111.8461 114° Southeast 484 557 35,000  Climbing Salt Lake Center
06:22PM 47.8433 -111.6608 113° Southeast 486 559 35,000  Level Salt Lake Center
06:23PM 47.7894 -111.4772 114° Southeast 485 558 35,000  Level Salt Lake Center
06:24PM 47.7253 -111.2508 113° Southeast 486 559 35,000  Level Salt Lake Center
06:25PM 47.6661 -111.0606 115° Southeast 492 566 35,000 -60 Level Salt Lake Center
06:26PM 47.6094 -110.8772 115° Southeast 487 560 34,900 -60 Descending Salt Lake Center
06:27PM 47.5542 -110.6947 114° Southeast 486 559 34,900  Level Salt Lake Center
06:28PM 47.4981 -110.5136 115° Southeast 486 559 34,900  Level Salt Lake Center
06:29PM 47.4414 -110.3314 115° Southeast 488 562 35,000  Climbing Salt Lake Center
06:30PM 47.3864 -110.1503 114° Southeast 485 558 35,000  Level Salt Lake Center
06:31PM 47.3478 -109.9619 107° East 482 555 35,000 -60 Level Salt Lake Center
06:32PM 47.3028 -109.7311 106° East 489 563 34,900 -60 Descending Salt Lake Center
06:33PM 47.2658 -109.5428 106° East 483 556 34,900  Level Salt Lake Center
06:34PM 47.2289 -109.3503 106° East 488 562 35,000  Climbing Salt Lake Center
06:35PM 47.1931 -109.1575 105° East 491 565 35,000  Level Salt Lake Center
06:36PM 47.1481 -108.9586 108° East 481 554 35,000  Level Salt Lake Center
06:37PM 47.1111 -108.7731 106° East 473 544 35,000  Level Salt Lake Center
06:38PM 47.0714 -108.5828 107° East 483 556 35,000  Level Salt Lake Center
06:40PM 47.0325 -108.3939 107° East 484 557 35,000  Level Salt Lake Center
06:41PM 46.9922 -108.1989 107° East 495 570 35,000  Level Salt Lake Center
06:42PM 46.9444 -107.9681 107° East 496 571 35,000  Level Salt Lake Center
06:43PM 46.9031 -107.7767 107° East 495 570 35,000  Level Salt Lake Center
06:44PM 46.8619 -107.5856 107° East 494 568 35,000  Level Salt Lake Center
06:45PM 46.8203 -107.4008 108° East 490 564 35,000  Level Salt Lake Center
06:46PM 46.7797 -107.2133 107° East 486 559 35,000  Level Salt Lake Center
06:47PM 46.7364 -107.0228 108° East 492 566 35,000  Level Salt Lake Center
06:48PM 46.6947 -106.8353 108° East 490 564 35,000  Level Salt Lake Center
06:49PM 46.6422 -106.6075 108° East 492 566 35,000  Level Salt Lake Center
06:50PM 46.5981 -106.4175 109° East 494 568 35,000  Level Salt Lake Center
06:51PM 46.5547 -106.2322 109° East 492 566 35,000  Level Salt Lake Center
06:52PM 46.5108 -106.0458 109° East 491 565 35,000  Level Salt Lake Center
06:53PM 46.4553 -105.8628 114° Southeast 493 567 35,000  Level Salt Lake Center
06:54PM 46.3925 -105.6814 117° Southeast 500 575 35,000  Level Salt Lake Center
06:55PM 46.3311 -105.5011 116° Southeast 501 577 35,000  Level Salt Lake Center
06:56PM 46.2581 -105.2872 116° Southeast 497 572 35,000  Level Salt Lake Center
06:57PM 46.2119 -105.1019 110° East 494 568 35,000  Level Salt Lake Center
06:58PM 46.1814 -104.9117 103° East 490 564 35,000  Level Salt Lake Center
06:59PM 46.1486 -104.7236 104° East 487 560 35,000  Level Salt Lake Center
07:00PM 46.1164 -104.5319 104° East 490 564 35,000  Level Salt Lake Center
07:01PM 46.0783 -104.3136 104° East 493 567 35,000  Level Salt Lake Center
07:02PM 46.0444 -104.1222 104° East 495 570 35,000  Level Salt Lake Center
07:03PM 46.0100 -103.9306 104° East 497 572 35,000 -60 Level Salt Lake Center
07:04PM 45.9758 -103.7403 104° East 496 571 34,900 -60 Descending Salt Lake Center
07:05PM 45.9403 -103.5508 105° East 494 568 34,900  Level Salt Lake Center
07:06PM 45.9056 -103.3597 105° East 495 570 34,900  Level Salt Lake Center
07:07PM 45.8714 -103.1719 105° East 497 572 35,000  Climbing Minneapolis Center
07:08PM 45.8356 -102.9803 105° East 499 574 35,000  Level Minneapolis Center
07:09PM 45.7922 -102.7536 105° East 497 572 35,000  Level Minneapolis Center
07:10PM 45.7522 -102.5483 106° East 499 574 35,000  Level Minneapolis Center
07:11PM 45.7169 -102.3569 105° East 500 575 35,000  Level Minneapolis Center
07:12PM 45.6800 -102.1644 105° East 501 577 35,000  Level Minneapolis Center
07:13PM 45.6428 -101.9736 106° East 501 577 35,000  Level Minneapolis Center
07:15PM 45.6056 -101.7814 105° East 501 577 35,000  Level Minneapolis Center
07:16PM 45.5667 -101.5908 106° East 501 577 35,000  Level Minneapolis Center
07:17PM 45.5214 -101.3611 106° East 501 577 35,000  Level Minneapolis Center
07:18PM 45.4817 -101.1722 107° East 500 575 35,000  Level Minneapolis Center
07:19PM 45.4453 -100.9786 105° East 502 578 35,000  Level Minneapolis Center
07:20PM 45.4078 -100.7903 106° East 498 573 35,000  Level Minneapolis Center
07:21PM 45.3681 -100.6025 107° East 496 571 35,000  Level Minneapolis Center
07:22PM 45.3272 -100.4133 107° East 498 573 35,000  Level Minneapolis Center
07:23PM 45.2894 -100.2244 106° East 497 572 35,000  Level Minneapolis Center
07:24PM 45.2514 -99.9908 103° East 499 574 35,000  Level Minneapolis Center
07:25PM 45.2164 -99.7914 104° East 507 583 35,000  Level Minneapolis Center
07:26PM 45.1811 -99.5956 104° East 507 583 35,000  Level Minneapolis Center
07:27PM 45.1464 -99.4031 104° East 504 580 35,000  Level Minneapolis Center
07:28PM 45.1122 -99.2108 104° East 502 578 35,000  Level Minneapolis Center
07:29PM 45.0769 -99.0172 104° East 504 580 35,000  Level Minneapolis Center
07:30PM 45.0419 -98.8236 104° East 507 583 35,000  Level Minneapolis Center
07:31PM 45.0067 -98.6322 105° East 506 582 35,000  Level Minneapolis Center
07:32PM 44.9639 -98.4017 105° East 506 582 35,000  Level Minneapolis Center
07:33PM 44.9256 -98.2111 106° East 508 585 35,000  Level Minneapolis Center
07:34PM 44.8883 -98.0197 105° East 507 583 35,000  Level Minneapolis Center
07:35PM 44.8514 -97.8281 105° East 508 585 35,000  Level Minneapolis Center
07:36PM 44.8136 -97.6364 105° East 508 585 35,000  Level Minneapolis Center
07:37PM 44.7661 -97.4089 106° East 506 582 35,000  Level Minneapolis Center
07:38PM 44.7286 -97.2169 105° East 508 585 35,000  Level Minneapolis Center
07:39PM 44.6900 -97.0275 106° East 505 581 35,000  Level Minneapolis Center
07:40PM 44.6528 -96.8375 105° East 504 580 35,000  Level Minneapolis Center
07:41PM 44.6125 -96.6458 106° East 509 586 35,000  Level Minneapolis Center
07:42PM 44.5728 -96.4556 106° East 507 583 35,000  Level Minneapolis Center
07:43PM 44.5333 -96.2647 106° East 507 583 35,000  Level Minneapolis Center
07:45PM 44.4931 -96.0728 106° East 507 583 35,000  Level Minneapolis Center
07:46PM 44.4419 -95.8431 107° East 510 587 35,000  Level Minneapolis Center
07:47PM 44.3992 -95.6528 107° East 510 587 35,000  Level Minneapolis Center
07:48PM 44.3564 -95.4658 108° East 505 581 35,000  Level Minneapolis Center
07:49PM 44.3144 -95.2775 107° East 506 582 35,000  Level Minneapolis Center
07:50PM 44.2714 -95.0900 108° East 507 583 35,000  Level Minneapolis Center
07:51PM 44.2286 -94.9033 108° East 507 583 35,000  Level Minneapolis Center
07:52PM 44.1817 -94.7164 109° East 510 587 35,000  Level Minneapolis Center
07:53PM 44.1436 -94.5136 105° East 508 585 35,000  Level Minneapolis Center
07:54PM 44.1183 -94.3239 100° East 504 580 35,000  Level Minneapolis Center
07:55PM 44.0833 -94.0964 102° East 503 579 35,000  Level Minneapolis Center
07:56PM 43.9900 -93.9583 133° Southeast 495 570 35,000  Level Minneapolis Center
07:57PM 43.8650 -93.9147 166° South 468 539 35,000  Level Minneapolis Center
07:58PM 43.7381 -93.9025 176° South 462 532 35,000  Level Minneapolis Center
07:59PM 43.6106 -93.8872 175° South 460 529 35,000  Level Minneapolis Center
08:00PM 43.4642 -93.8689 175° South 463 533 35,000  Level Minneapolis Center
08:01PM 43.3358 -93.8558 176° South 466 536 35,000  Level Minneapolis Center
08:02PM 43.2089 -93.8417 175° South 464 534 35,000  Level Minneapolis Center
08:03PM 43.0831 -93.8272 175° South 460 529 35,000  Level Minneapolis Center
08:04PM 42.9317 -93.8153 177° South 459 528 35,000  Level Minneapolis Center
08:05PM 42.8278 -93.8783 204° Southwest 414 476 35,000  Level Minneapolis Center
08:06PM 42.7369 -93.9658 215° Southwest 405 466 35,000  Level Minneapolis Center
08:07PM 42.6281 -94.0711 215° Southwest 405 466 35,000  Level Minneapolis Center
08:08PM 42.5331 -94.1508 212° Southwest 405 466 35,000  Level Minneapolis Center
08:09PM 42.3783 -94.1231 172° South 478 550 35,000  Level Minneapolis Center
08:11PM 42.2544 -94.0589 159° South 483 556 35,000  Level Minneapolis Center
08:12PM 42.1283 -93.9936 159° South 479 551 35,000  Level Minneapolis Center
08:13PM 41.9778 -93.9178 159° South 479 551 35,000  Level Minneapolis Center
08:14PM 41.8592 -93.8589 160° South 478 550 35,000  Level Minneapolis Center
08:15PM 41.7119 -93.7847 159° South 475 547 35,000  Level Minneapolis Center
08:16PM 41.5892 -93.7228 159° South 474 545 35,000  Level Minneapolis Center
08:17PM 41.4994 -93.5878 132° Southeast 494 568 35,100  Climbing Minneapolis Center
08:18PM 41.4769 -93.3986 99° East 513 590 35,000 -60 Descending Minneapolis Center
08:19PM 41.4636 -93.2119 95° East 511 588 35,000  Level Minneapolis Center
08:20PM 41.4511 -93.0264 95° East 507 583 35,000  Level Minneapolis Center
08:21PM 41.4353 -92.8058 95° East 504 580 35,000  Level Minneapolis Center
08:22PM 41.4228 -92.6225 95° East 501 577 35,000  Level Minneapolis Center
08:23PM 41.4094 -92.4375 95° East 503 579 35,000  Level Minneapolis Center
08:24PM 41.3950 -92.2531 96° East 503 579 35,000  Level Minneapolis Center
08:25PM 41.3806 -92.0683 96° East 503 579 35,000 -240 Level Minneapolis Center
08:26PM 41.3631 -91.8425 96° East 509 586 34,600 -300 Descending Minneapolis Center
08:27PM 41.3481 -91.6733 97° East 511 588 34,400 -660 Descending Minneapolis Center
08:29PM 41.3281 -91.4144 96° East 506 582 33,000 -1,020 Descending Chicago Center
08:30PM 41.3111 -91.2192 97° East 512 589 32,000 -960 Descending Chicago Center
08:31PM 41.2950 -91.0317 96° East 511 588 31,100 -1,020 Descending Chicago Center
08:32PM 41.2786 -90.8408 96° East 519 597 30,000 -1,020 Descending Chicago Center
08:33PM 41.2589 -90.6225 97° East 495 570 29,000 -1,020 Descending Chicago Center
08:34PM 41.2428 -90.4464 97° East 482 555 28,000 -1,020 Descending Chicago Center
08:35PM 41.2269 -90.2686 97° East 483 556 27,000 -960 Descending Chicago Center
08:36PM 41.2097 -90.0933 97° East 478 550 26,100 -960 Descending Chicago Center
08:37PM 41.1917 -89.9175 98° East 478 550 25,100 -960 Descending Chicago Center
08:38PM 41.1758 -89.7419 97° East 475 547 24,200 -660 Descending Chicago Center
08:39PM 41.1717 -89.5714 92° East 466 536 23,800 -660 Descending Chicago Center
08:40PM 41.2369 -89.4036 63° Northeast 430 495 22,900 -840 Descending Chicago Center
08:41PM 41.2897 -89.2650 63° Northeast 421 484 22,100 -780 Descending Chicago Center
08:42PM 41.2914 -89.0933 89° East 430 495 21,300 -780 Descending Chicago Center
08:43PM 41.2633 -88.9442 104° East 430 495 20,500 -1,260 Descending Chicago Center
08:44PM 41.2789 -88.8014 82° East 415 478 18,800 -1,860 Descending Chicago Center
08:45PM 41.3553 -88.7014 44° Northeast 387 445 16,700 -2,040 Descending Chicago Center
08:46PM 41.4344 -88.6053 42° Northeast 387 445 14,600 -1,920 Descending Chicago Center
08:47PM 41.5156 -88.5039 43° Northeast 397 457 12,700 -1,920 Descending Chicago Center
08:48PM 41.6094 -88.3858 43° Northeast 385 443 10,700 -1,260 Descending Chicago Center
08:49PM 41.6811 -88.2950 43° Northeast 349 402 10,200 -780 Descending Chicago Center
08:50PM 41.7458 -88.2125 44° Northeast 323 372 9,200 -1,020 Descending Chicago Center
08:51PM 41.8078 -88.1333 44° Northeast 310 357 8,200 -900 Descending Chicago Center
08:52PM 41.8675 -88.0592 43° Northeast 295 339 7,400 -540 Descending Chicago Center
08:53PM 41.9000 -88.0000 54° Northeast 267 307 7,300 -300 Descending Chicago TRACON
08:54PM 41.9000 -87.9000 90° East 268 308 7,000 -180 Descending Chicago TRACON
08:55PM 41.8833 -87.8000 103° East 254 292 7,000 -420 Level Chicago TRACON
08:56PM 41.9000 -87.7167 75° East 206 237 6,200 -900 Descending Chicago TRACON
08:57PM 41.8833 -87.6500 109° East 209 241 5,200 -900 Descending Chicago TRACON
08:58PM 41.8833 -87.5667 90° East 203 234 4,500 -660 Descending Chicago TRACON
08:59PM 41.8747 -87.5433 116° Southeast 205 236 4,300 -360 Descending Chicago Center
09:00PM 41.8667 -87.4714 99° East 200 230 4,000 -180 Descending Chicago Center
09:01PM 41.8903 -87.3936 68° East 208 239 4,000  Level Chicago Center
09:02PM 41.9389 -87.3900 North 183 211 4,000  Level Chicago Center
09:03PM 41.9664 -87.4347 310° West 176 203 4,000  Level Chicago Center
09:04PM 41.9683 -87.4986 272° West 174 200 4,000  Level Chicago Center
09:05PM 41.9686 -87.5622 270° West 172 198 4,000  Level Chicago Center
09:06PM 41.9689 -87.6369 270° West 170 196 4,000 -300 Level Chicago Center
09:07PM 41.9681 -87.6989 269° West 168 193 3,400 -780 Descending Chicago Center
09:08PM 41.9683 -87.7628 270° West 172 198 2,500 -900 Descending Chicago Center
09:09PM 41.9697 -87.8233 272° West 169 194 1,600 -480 Descending Chicago Center
09:10PM 41.9711 -87.8872 272° West 164 189 1,600  Level Chicago Center